createdAt,value
2023-01-05T00:00:23.693Z,100.00
2023-01-05T00:03:26.300Z,100.00
2023-01-05T00:06:29.013Z,100.00
2023-01-05T00:09:31.658Z,100.00
2023-01-05T00:12:52.870Z,100.00
2023-01-05T00:16:14.256Z,100.00
2023-01-05T00:19:35.840Z,100.00
2023-01-05T00:22:46.902Z,100.00
2023-01-05T00:25:49.418Z,100.00
2023-01-05T00:28:52.151Z,100.00
2023-01-05T00:31:54.765Z,100.00
2023-01-05T00:34:58.693Z,100.00
2023-01-05T00:38:01.286Z,100.00
2023-01-05T00:41:03.755Z,100.00
2023-01-05T00:44:06.255Z,100.00
2023-01-05T00:47:08.912Z,100.00
2023-01-05T00:50:14.931Z,100.00
2023-01-05T00:53:17.729Z,100.00
2023-01-05T00:56:20.264Z,100.00
2023-01-05T00:59:22.884Z,100.00
2023-01-05T01:02:25.473Z,100.00
2023-01-05T01:05:28.113Z,100.00
2023-01-05T01:08:32.721Z,100.00
2023-01-05T01:11:35.599Z,100.00
2023-01-05T01:14:39.292Z,100.00
2023-01-05T01:17:41.846Z,100.00
2023-01-05T01:20:44.409Z,100.00
2023-01-05T01:23:46.970Z,100.00
2023-01-05T01:26:49.703Z,100.00
2023-01-05T01:29:52.410Z,100.00
2023-01-05T01:32:55.450Z,100.00
2023-01-05T01:35:58.579Z,100.00
2023-01-05T01:39:01.264Z,100.00
2023-01-05T01:42:14.752Z,100.00
2023-01-05T01:45:24.135Z,100.00
2023-01-05T01:48:27.007Z,100.00
2023-01-05T01:51:48.066Z,100.00
2023-01-05T01:54:51.675Z,100.00
2023-01-05T01:57:54.448Z,100.00
2023-01-05T02:00:57.854Z,100.00
2023-01-05T02:04:02.274Z,100.00
2023-01-05T02:07:06.105Z,100.00
2023-01-05T02:10:09.834Z,100.00
2023-01-05T02:13:35.410Z,100.00
2023-01-05T02:16:55.021Z,100.00
2023-01-05T02:20:25.757Z,100.00
2023-01-05T02:23:47.142Z,100.00
2023-01-05T02:27:17.854Z,100.00
2023-01-05T02:30:54.367Z,100.00
2023-01-05T02:34:12.409Z,100.00
2023-01-05T02:37:41.649Z,100.00
2023-01-05T02:40:47.585Z,100.00
2023-01-05T02:43:50.600Z,100.00
2023-01-05T02:47:19.653Z,100.00
2023-01-05T02:50:34.629Z,100.00
2023-01-05T02:53:41.418Z,100.00
2023-01-05T02:56:52.115Z,100.00
2023-01-05T02:59:54.824Z,100.00
2023-01-05T03:03:04.680Z,100.00
2023-01-05T03:06:30.563Z,100.00
2023-01-05T03:09:39.404Z,100.00
2023-01-05T03:13:04.741Z,100.00
2023-01-05T03:16:09.531Z,100.00
2023-01-05T03:19:32.238Z,100.00
2023-01-05T03:22:54.777Z,100.00
2023-01-05T03:26:17.299Z,100.00
2023-01-05T03:29:39.029Z,100.00
2023-01-05T03:33:11.916Z,100.00
2023-01-05T03:36:18.878Z,100.00
2023-01-05T03:39:26.687Z,100.00
2023-01-05T03:42:31.321Z,100.00
2023-01-05T03:45:41.004Z,100.00
2023-01-05T03:48:46.045Z,100.00
2023-01-05T03:51:48.639Z,100.00
2023-01-05T03:54:51.869Z,100.00
2023-01-05T03:57:55.264Z,100.00
2023-01-05T04:00:57.870Z,100.00
2023-01-05T04:04:01.134Z,100.00
2023-01-05T04:07:04.099Z,100.00
2023-01-05T04:10:10.794Z,100.00
2023-01-05T04:13:13.495Z,100.00
2023-01-05T04:16:18.904Z,100.00
2023-01-05T04:19:21.843Z,100.00
2023-01-05T04:22:27.815Z,100.00
2023-01-05T04:25:31.286Z,100.00
2023-01-05T04:28:46.192Z,100.00
2023-01-05T04:31:48.780Z,100.00
2023-01-05T04:34:51.467Z,100.00
2023-01-05T04:37:56.542Z,99.93
2023-01-05T04:40:59.585Z,100.00
2023-01-05T04:44:02.515Z,100.00
2023-01-05T04:47:05.086Z,100.00
2023-01-05T04:50:10.248Z,100.00
2023-01-05T04:53:13.627Z,100.00
2023-01-05T04:56:18.403Z,100.00
2023-01-05T04:59:21.868Z,100.00
2023-01-05T05:02:27.540Z,100.00
2023-01-05T05:05:30.160Z,100.00
2023-01-05T05:08:33.061Z,100.00
2023-01-05T05:11:37.304Z,100.00
2023-01-05T05:14:39.896Z,100.00
2023-01-05T05:17:43.196Z,100.00
2023-01-05T05:20:50.895Z,100.00
2023-01-05T05:23:53.659Z,100.00
2023-01-05T05:26:57.587Z,100.00
2023-01-05T05:30:00.114Z,100.00
2023-01-05T05:33:02.620Z,100.00
2023-01-05T05:36:06.280Z,100.00
2023-01-05T05:39:08.780Z,100.00
2023-01-05T05:42:11.315Z,100.00
2023-01-05T05:45:13.833Z,100.00
2023-01-05T05:48:16.372Z,100.00
2023-01-05T05:51:20.067Z,100.00
2023-01-05T05:54:22.861Z,100.00
2023-01-05T05:57:25.688Z,100.00
2023-01-05T06:00:28.426Z,100.00
2023-01-05T06:03:31.046Z,100.00
2023-01-05T06:06:33.688Z,100.00
2023-01-05T06:09:36.179Z,100.00
2023-01-05T06:12:38.792Z,100.00
2023-01-05T06:15:42.431Z,98.88
2023-01-05T06:18:44.970Z,99.32
2023-01-05T06:21:47.466Z,98.81
2023-01-05T06:24:50.052Z,97.99
2023-01-05T06:27:52.685Z,98.07
2023-01-05T06:30:55.272Z,95.77
2023-01-05T06:33:57.786Z,97.08
2023-01-05T06:37:02.535Z,97.87
2023-01-05T06:40:05.981Z,98.62
2023-01-05T06:43:08.515Z,98.95
2023-01-05T06:46:11.240Z,99.75
2023-01-05T06:49:14.998Z,100.00
2023-01-05T06:52:17.675Z,100.00
2023-01-05T06:55:22.061Z,100.00
2023-01-05T06:58:30.184Z,100.00
2023-01-05T07:01:32.946Z,100.00
2023-01-05T07:04:35.690Z,100.00
2023-01-05T07:07:38.310Z,100.00
2023-01-05T07:10:41.288Z,100.00
2023-01-05T07:13:48.204Z,100.00
2023-01-05T07:16:50.992Z,100.00
2023-01-05T07:19:53.561Z,100.00
2023-01-05T07:22:56.135Z,100.00
2023-01-05T07:26:01.868Z,100.00
2023-01-05T07:29:04.776Z,100.00
2023-01-05T07:32:07.703Z,100.00
2023-01-05T07:35:10.341Z,100.00
2023-01-05T07:38:13.009Z,100.00
2023-01-05T07:41:16.074Z,100.00
2023-01-05T07:44:18.693Z,100.00
2023-01-05T07:47:21.269Z,100.00
2023-01-05T07:50:23.925Z,100.00
2023-01-05T07:53:26.488Z,100.00
2023-01-05T07:56:29.041Z,100.00
2023-01-05T07:59:31.611Z,100.00
2023-01-05T08:02:36.302Z,100.00
2023-01-05T08:05:39.081Z,100.00
2023-01-05T08:08:41.969Z,100.00
2023-01-05T08:11:44.705Z,100.00
2023-01-05T08:14:49.635Z,100.00
2023-01-05T08:17:52.161Z,100.00
2023-01-05T08:20:56.746Z,100.00
2023-01-05T08:24:00.045Z,100.00
2023-01-05T08:27:02.938Z,100.00
2023-01-05T08:30:06.220Z,100.00
2023-01-05T08:33:09.157Z,100.00
2023-01-05T08:36:14.381Z,100.00
2023-01-05T08:39:16.941Z,100.00
2023-01-05T08:42:19.499Z,100.00
2023-01-05T08:45:22.123Z,100.00
2023-01-05T08:48:24.890Z,100.00
2023-01-05T08:51:28.353Z,100.00
2023-01-05T08:54:31.248Z,97.63
2023-01-05T08:57:34.526Z,96.34
2023-01-05T09:00:39.787Z,95.51
2023-01-05T09:03:42.634Z,95.53
2023-01-05T09:06:45.351Z,94.91
2023-01-05T09:09:48.128Z,93.28
2023-01-05T09:12:50.843Z,94.55
2023-01-05T09:15:53.598Z,94.07
2023-01-05T09:18:57.889Z,94.38
2023-01-05T09:22:00.613Z,94.39
2023-01-05T09:25:03.935Z,94.32
2023-01-05T09:28:06.644Z,94.62
2023-01-05T09:31:17.515Z,94.48
2023-01-05T09:34:20.195Z,94.63
2023-01-05T09:37:22.719Z,93.26
2023-01-05T09:40:25.628Z,94.11
2023-01-05T09:43:33.983Z,92.90
2023-01-05T09:46:43.551Z,92.70
2023-01-05T09:49:48.243Z,92.95
2023-01-05T09:52:53.020Z,93.31
2023-01-05T09:55:56.041Z,92.92
2023-01-05T09:59:35.278Z,92.86
2023-01-05T10:02:37.873Z,92.26
2023-01-05T10:05:42.790Z,92.14
2023-01-05T10:08:49.102Z,91.32
2023-01-05T10:12:29.592Z,92.37
2023-01-05T10:15:44.362Z,91.07
2023-01-05T10:18:47.245Z,90.77
2023-01-05T10:22:24.956Z,90.84
2023-01-05T10:25:46.373Z,89.46
2023-01-05T10:28:52.000Z,89.43
2023-01-05T10:32:10.051Z,90.27
2023-01-05T10:39:06.211Z,88.68
2023-01-05T10:42:16.418Z,87.06
2023-01-05T10:45:20.740Z,88.58
2023-01-05T10:48:28.424Z,87.26
2023-01-05T10:51:34.216Z,87.11
2023-01-05T10:54:40.006Z,87.57
2023-01-05T10:57:43.302Z,87.64
2023-01-05T11:00:46.216Z,86.76
2023-01-05T11:07:12.432Z,84.78
2023-01-05T11:10:36.224Z,83.36
2023-01-05T11:13:46.970Z,82.20
2023-01-05T11:16:51.924Z,84.29
2023-01-05T11:19:56.657Z,83.36
2023-01-05T11:22:59.411Z,83.21
2023-01-05T11:26:30.961Z,83.56
2023-01-05T11:29:33.691Z,84.28
2023-01-05T11:32:36.366Z,84.81
2023-01-05T11:35:39.354Z,83.94
2023-01-05T11:38:42.146Z,84.01
2023-01-05T11:41:44.756Z,85.45
2023-01-05T11:44:58.460Z,83.57
2023-01-05T11:48:09.461Z,83.71
2023-01-05T11:51:41.174Z,83.35
2023-01-05T11:54:44.821Z,81.92
2023-01-05T11:57:52.704Z,81.86
2023-01-05T12:01:20.560Z,80.75
2023-01-05T12:04:35.608Z,81.73
2023-01-05T12:07:43.204Z,82.20
2023-01-05T12:11:03.273Z,80.21
2023-01-05T12:14:27.820Z,80.66
2023-01-05T12:17:34.695Z,81.83
2023-01-05T12:20:37.325Z,79.76
2023-01-05T12:23:52.252Z,81.01
2023-01-05T12:27:10.130Z,79.60
2023-01-05T12:34:13.353Z,80.85
2023-01-05T12:37:28.623Z,80.54
2023-01-05T12:41:24.172Z,81.11
2023-01-05T12:44:48.439Z,81.09
2023-01-05T12:48:10.701Z,79.85
2023-01-05T12:51:24.901Z,81.56
2023-01-05T12:54:47.757Z,79.72
2023-01-05T12:57:59.077Z,78.98
2023-01-05T13:01:03.502Z,78.56
2023-01-05T13:04:26.992Z,77.99
2023-01-05T13:07:36.189Z,76.92
2023-01-05T13:10:45.815Z,76.47
2023-01-05T13:14:00.200Z,76.55
2023-01-05T13:17:31.203Z,74.37
2023-01-05T13:20:41.365Z,75.72
2023-01-05T13:23:48.135Z,76.66
2023-01-05T13:26:50.812Z,74.38
2023-01-05T13:29:59.520Z,75.85
2023-01-05T13:33:20.681Z,75.62
2023-01-05T13:36:58.210Z,75.44
2023-01-05T13:40:11.303Z,74.68
2023-01-05T13:43:20.427Z,75.70
2023-01-05T13:47:01.061Z,74.76
2023-01-05T13:50:41.848Z,74.77
2023-01-05T13:53:45.953Z,73.93
2023-01-05T13:56:50.492Z,74.90
2023-01-05T14:00:07.299Z,72.68
2023-01-05T14:03:27.707Z,73.34
2023-01-05T14:06:33.451Z,72.06
2023-01-05T14:09:48.629Z,72.26
2023-01-05T14:12:54.401Z,72.46
2023-01-05T14:15:57.202Z,73.22
2023-01-05T14:19:24.199Z,71.19
2023-01-05T14:22:37.889Z,72.63
2023-01-05T14:25:40.374Z,73.82
2023-01-05T14:28:45.428Z,73.04
2023-01-05T14:31:48.605Z,74.42
2023-01-05T14:34:54.614Z,71.42
2023-01-05T14:38:23.649Z,72.54
2023-01-05T14:41:28.396Z,71.53
2023-01-05T14:44:43.051Z,71.68
2023-01-05T14:47:47.599Z,73.75
2023-01-05T14:51:08.659Z,71.78
2023-01-05T14:54:11.587Z,71.12
2023-01-05T14:57:26.657Z,70.41
2023-01-05T15:00:29.344Z,70.21
2023-01-05T15:03:50.223Z,70.71
2023-01-05T15:07:18.131Z,71.45
2023-01-05T15:10:50.238Z,72.07
2023-01-05T15:14:29.522Z,70.44
2023-01-05T15:17:54.017Z,71.02
2023-01-05T15:21:11.332Z,72.85
2023-01-05T15:24:44.871Z,71.90
2023-01-05T15:28:13.591Z,71.38
2023-01-05T15:31:36.331Z,70.89
2023-01-05T15:34:44.514Z,70.69
2023-01-05T15:37:48.971Z,71.79
2023-01-05T15:41:08.517Z,71.39
2023-01-05T15:44:16.688Z,73.41
2023-01-05T15:47:20.851Z,72.14
2023-01-05T15:50:27.934Z,73.12
2023-01-05T15:53:33.360Z,71.53
2023-01-05T15:56:42.076Z,71.61
2023-01-05T15:59:48.500Z,71.16
2023-01-05T16:02:51.486Z,72.33
2023-01-05T16:06:24.756Z,70.97
2023-01-05T16:09:34.384Z,70.70
2023-01-05T16:12:37.467Z,71.41
2023-01-05T16:15:42.208Z,72.26
2023-01-05T16:18:52.566Z,70.79
2023-01-05T16:22:03.833Z,71.13
2023-01-05T16:25:24.427Z,71.34
2023-01-05T16:28:27.383Z,70.07
2023-01-05T16:31:34.859Z,70.38
2023-01-05T16:34:37.806Z,70.74
2023-01-05T16:37:40.407Z,71.40
2023-01-05T16:40:45.802Z,71.27
2023-01-05T16:43:59.979Z,72.20
2023-01-05T16:47:10.565Z,71.96
2023-01-05T16:50:22.866Z,73.69
2023-01-05T16:53:25.849Z,73.19
2023-01-05T16:56:32.274Z,73.14
2023-01-05T16:59:59.500Z,74.13
2023-01-05T17:03:04.995Z,72.80
2023-01-05T17:06:24.671Z,73.74
2023-01-05T17:09:28.210Z,73.68
2023-01-05T17:12:31.209Z,73.29
2023-01-05T17:15:36.203Z,74.73
2023-01-05T17:18:39.367Z,75.06
2023-01-05T17:22:01.218Z,74.29
2023-01-05T17:25:05.423Z,74.89
2023-01-05T17:28:10.347Z,74.50
2023-01-05T17:34:17.478Z,75.29
2023-01-05T17:37:20.235Z,75.08
2023-01-05T17:40:23.546Z,75.24
2023-01-05T17:43:26.904Z,75.71
2023-01-05T17:46:31.631Z,75.00
2023-01-05T17:49:34.338Z,75.45
2023-01-05T17:52:37.008Z,73.98
2023-01-05T17:55:39.842Z,74.86
2023-01-05T17:58:42.673Z,74.30
2023-01-05T18:05:09.686Z,74.35
2023-01-05T18:08:12.544Z,74.99
2023-01-05T18:11:17.264Z,74.50
2023-01-05T18:14:23.861Z,75.44
2023-01-05T18:17:27.212Z,75.13
2023-01-05T18:20:30.410Z,75.54
2023-01-05T18:23:33.598Z,75.68
2023-01-05T18:26:36.487Z,76.57
2023-01-05T18:29:41.151Z,77.49
2023-01-05T18:32:44.765Z,76.06
2023-01-05T18:35:50.422Z,76.47
2023-01-05T18:38:53.449Z,75.95
2023-01-05T18:41:57.229Z,75.55
2023-01-05T18:45:04.971Z,77.07
2023-01-05T18:48:17.502Z,77.40
2023-01-05T18:51:20.441Z,77.94
2023-01-05T18:54:23.580Z,78.40
2023-01-05T18:57:26.630Z,81.13
2023-01-05T19:00:30.118Z,81.44
2023-01-05T19:03:34.372Z,82.88
2023-01-05T19:06:38.235Z,84.06
2023-01-05T19:09:40.894Z,84.11
2023-01-05T19:12:43.644Z,83.20
2023-01-05T19:15:46.373Z,84.03
2023-01-05T19:18:51.326Z,83.72
2023-01-05T19:21:55.394Z,83.13
2023-01-05T19:24:59.165Z,84.72
2023-01-05T19:28:02.585Z,86.64
2023-01-05T19:31:07.417Z,87.55
2023-01-05T19:34:12.967Z,88.08
2023-01-05T19:37:16.007Z,87.85
2023-01-05T19:40:18.730Z,87.52
2023-01-05T19:43:21.503Z,87.36
2023-01-05T19:46:26.031Z,88.42
2023-01-05T19:49:28.896Z,86.31
2023-01-05T19:52:31.659Z,85.38
2023-01-05T19:55:39.370Z,85.84
2023-01-05T19:58:43.175Z,85.39
2023-01-05T20:01:46.380Z,86.53
2023-01-05T20:04:49.361Z,86.60
2023-01-05T20:07:52.152Z,86.47
2023-01-05T20:10:54.743Z,85.62
2023-01-05T20:13:57.462Z,85.58
2023-01-05T20:17:02.495Z,85.06
2023-01-05T20:20:05.945Z,84.85
2023-01-05T20:23:08.629Z,84.60
2023-01-05T20:26:16.832Z,84.62
2023-01-05T20:29:20.976Z,84.17
2023-01-05T20:32:25.422Z,84.37
2023-01-05T20:35:28.253Z,82.64
2023-01-05T20:38:32.605Z,82.99
2023-01-05T20:41:41.475Z,83.03
2023-01-05T20:44:46.590Z,81.91
2023-01-05T20:47:49.170Z,81.35
2023-01-05T20:50:51.957Z,81.26
2023-01-05T20:53:55.808Z,81.76
2023-01-05T20:56:58.418Z,82.83
2023-01-05T21:00:01.393Z,82.29
2023-01-05T21:03:04.635Z,82.68
2023-01-05T21:06:09.685Z,82.11
2023-01-05T21:09:12.818Z,81.38
2023-01-05T21:12:15.986Z,81.72
2023-01-05T21:15:18.789Z,82.04
2023-01-05T21:18:22.110Z,81.82
2023-01-05T21:21:26.204Z,81.08
2023-01-05T21:24:29.109Z,81.94
2023-01-05T21:27:31.811Z,81.54
2023-01-05T21:30:34.407Z,81.69
2023-01-05T21:33:37.869Z,81.48
2023-01-05T21:36:45.216Z,81.41
2023-01-05T21:39:48.508Z,81.90
2023-01-05T21:42:51.683Z,80.61
2023-01-05T21:45:54.997Z,80.81
2023-01-05T21:48:57.814Z,81.82
2023-01-05T21:52:19.291Z,82.02
2023-01-05T21:55:40.453Z,81.97
2023-01-05T21:58:43.222Z,81.72
2023-01-05T22:01:45.890Z,81.31
2023-01-05T22:04:49.223Z,81.49
2023-01-05T22:07:52.063Z,81.62
2023-01-05T22:10:56.227Z,80.78
2023-01-05T22:13:59.034Z,79.66
2023-01-05T22:17:01.966Z,80.28
2023-01-05T22:20:05.082Z,80.98
2023-01-05T22:23:07.693Z,78.94
2023-01-05T22:26:15.819Z,77.82
2023-01-05T22:29:19.507Z,77.75
2023-01-05T22:32:22.572Z,77.54
2023-01-05T22:35:26.017Z,75.83
2023-01-05T22:38:29.412Z,76.62
2023-01-05T22:41:32.052Z,77.02
2023-01-05T22:44:34.899Z,74.98
2023-01-05T22:47:37.601Z,75.37
2023-01-05T22:50:40.328Z,75.31
2023-01-05T22:53:44.305Z,76.61
2023-01-05T22:56:47.020Z,74.91
2023-01-05T22:59:49.580Z,74.19
2023-01-05T23:02:52.366Z,73.13
2023-01-05T23:05:55.017Z,73.47
2023-01-05T23:08:58.519Z,73.62
2023-01-05T23:12:01.910Z,74.33
2023-01-05T23:15:07.836Z,72.79
2023-01-05T23:18:10.385Z,72.77
2023-01-05T23:21:14.637Z,71.42
2023-01-05T23:24:17.271Z,72.76
2023-01-05T23:27:19.962Z,73.40
2023-01-05T23:30:22.590Z,72.34
2023-01-05T23:33:27.445Z,71.86
2023-01-05T23:36:30.107Z,72.18
2023-01-05T23:39:32.671Z,72.76
2023-01-05T23:42:44.301Z,73.04
2023-01-05T23:45:47.505Z,74.75
2023-01-05T23:48:51.568Z,74.80
2023-01-05T23:51:54.127Z,76.05
2023-01-05T23:54:56.679Z,76.48
2023-01-05T23:57:59.319Z,76.97
